Cincinnati, Ohio
Traffic Map
Current Weather Conditions
Cincinnati, Ohio
Clear
Clear
82°
Feels Like: 82°
Wind Chill: 82° Ceiling: Unl
Heat Index: 82° Visibility: 10mi
Dew Point: 57° Wind: 9mph
Humidity: 42% Direction: 320° (NW)
Pressure: 30.03in Gusts: 20mph
Raw Report DataKLUK 302253Z 32008G17KT 10SM CLR 28/14 A3003 RMK AO2 SLP163 T02780139
Traffic Incident Summary
Active as of:
Severity:
Category:
InformationThere was an issue retrieving the traffic information for this location. Please try a different location or try again shortly.
Advertisements
Track Severe Weather on mobile